createdAt,value
2023-05-08T00:00:28.177Z,241.57
2023-05-08T00:01:28.145Z,241.74
2023-05-08T00:02:28.209Z,241.89
2023-05-08T00:03:28.254Z,241.43
2023-05-08T00:04:28.095Z,241.14
2023-05-08T00:05:28.038Z,242.85
2023-05-08T00:06:28.044Z,242.42
2023-05-08T00:07:28.010Z,242.46
2023-05-08T00:08:27.991Z,242.78
2023-05-08T00:09:27.983Z,239.17
2023-05-08T00:10:27.974Z,242.24
2023-05-08T00:11:27.947Z,242.36
2023-05-08T00:12:27.937Z,241.67
2023-05-08T00:13:27.958Z,241.90
2023-05-08T00:14:27.889Z,242.47
2023-05-08T00:15:27.889Z,241.12
2023-05-08T00:16:27.889Z,242.43
2023-05-08T00:17:27.910Z,242.20
2023-05-08T00:18:27.844Z,242.27
2023-05-08T00:19:27.820Z,240.21
2023-05-08T00:20:27.784Z,241.62
2023-05-08T00:21:27.766Z,242.29
2023-05-08T00:22:27.738Z,241.75
2023-05-08T00:23:27.708Z,241.56
2023-05-08T00:24:27.716Z,240.67
2023-05-08T00:25:27.679Z,240.46
2023-05-08T00:26:27.652Z,242.27
2023-05-08T00:27:27.659Z,240.64
2023-05-08T00:28:27.669Z,239.54
2023-05-08T00:29:27.647Z,242.44
2023-05-08T00:30:27.656Z,240.41
2023-05-08T00:31:27.693Z,242.19
2023-05-08T00:32:27.776Z,240.31
2023-05-08T00:33:27.668Z,239.39
2023-05-08T00:34:27.674Z,241.04
2023-05-08T00:35:27.688Z,241.48
2023-05-08T00:36:27.682Z,241.30
2023-05-08T00:37:27.711Z,240.99
2023-05-08T00:38:27.701Z,240.47
2023-05-08T00:39:27.750Z,242.30
2023-05-08T00:40:27.715Z,240.99
2023-05-08T00:41:27.730Z,241.06
2023-05-08T00:42:27.754Z,240.04
2023-05-08T00:43:27.725Z,241.65
2023-05-08T00:44:27.757Z,240.72
2023-05-08T00:45:27.711Z,240.81
2023-05-08T00:46:27.718Z,240.94
2023-05-08T00:47:27.704Z,241.03
2023-05-08T00:48:27.654Z,242.44
2023-05-08T00:49:27.627Z,241.80
2023-05-08T00:50:27.610Z,242.06
2023-05-08T00:51:27.609Z,241.98
2023-05-08T00:52:27.578Z,241.10
2023-05-08T00:53:27.566Z,241.28
2023-05-08T00:54:27.532Z,240.28
2023-05-08T00:55:27.540Z,240.96
2023-05-08T00:56:27.507Z,241.35
2023-05-08T00:57:27.517Z,240.93
2023-05-08T00:58:27.472Z,242.24
2023-05-08T00:59:27.457Z,240.75
2023-05-08T01:00:27.432Z,240.11
2023-05-08T01:01:27.440Z,240.01
2023-05-08T01:02:27.472Z,240.28
2023-05-08T01:03:27.440Z,240.94
2023-05-08T01:04:27.349Z,240.72
2023-05-08T01:05:27.337Z,240.93
2023-05-08T01:06:27.330Z,240.67
2023-05-08T01:07:27.312Z,240.56
2023-05-08T01:08:27.317Z,242.22
2023-05-08T01:09:27.324Z,241.85
2023-05-08T01:10:27.350Z,240.46
2023-05-08T01:11:27.414Z,241.10
2023-05-08T01:12:27.363Z,241.31
2023-05-08T01:13:27.441Z,239.07
2023-05-08T01:14:27.350Z,239.18
2023-05-08T01:15:27.325Z,239.28
2023-05-08T01:16:27.402Z,239.64
2023-05-08T01:17:27.334Z,240.63
2023-05-08T01:18:27.273Z,240.72
2023-05-08T01:19:27.262Z,239.62
2023-05-08T01:20:27.247Z,241.90
2023-05-08T01:21:27.221Z,241.98
2023-05-08T01:22:27.198Z,240.10
2023-05-08T01:23:27.180Z,240.72
2023-05-08T01:24:27.173Z,242.41
2023-05-08T01:25:27.162Z,241.36
2023-05-08T01:26:27.131Z,240.95
2023-05-08T01:27:27.205Z,239.25
2023-05-08T01:28:27.100Z,239.03
2023-05-08T01:29:27.089Z,240.82
2023-05-08T01:30:27.063Z,241.34
2023-05-08T01:31:27.049Z,240.53
2023-05-08T01:32:27.060Z,240.70
2023-05-08T01:33:27.084Z,240.62
2023-05-08T01:34:27.004Z,240.68
2023-05-08T01:35:26.993Z,240.61
2023-05-08T01:36:27.009Z,241.26
2023-05-08T01:37:26.958Z,241.36
2023-05-08T01:38:26.957Z,241.45
2023-05-08T01:39:26.950Z,241.37
2023-05-08T01:40:26.928Z,240.98
2023-05-08T01:41:26.916Z,240.91
2023-05-08T01:42:26.888Z,240.99
2023-05-08T01:43:26.904Z,242.43
2023-05-08T01:44:26.856Z,240.33
2023-05-08T01:45:26.843Z,241.45
2023-05-08T01:46:26.868Z,239.96
2023-05-08T01:47:26.833Z,241.18
2023-05-08T01:48:26.829Z,239.23
2023-05-08T01:49:26.841Z,238.96
2023-05-08T01:50:26.795Z,242.07
2023-05-08T01:51:26.808Z,239.47
2023-05-08T01:52:26.778Z,241.37
2023-05-08T01:53:26.781Z,241.40
2023-05-08T01:54:26.776Z,241.42
2023-05-08T01:55:26.765Z,241.46
2023-05-08T01:56:26.763Z,241.64
2023-05-08T01:57:26.731Z,241.52
2023-05-08T01:58:26.723Z,241.80
2023-05-08T01:59:26.716Z,241.50
2023-05-08T02:00:26.777Z,241.98
2023-05-08T02:01:26.750Z,242.39
2023-05-08T02:02:26.708Z,242.31
2023-05-08T02:03:26.750Z,241.86
2023-05-08T02:04:26.683Z,239.84
2023-05-08T02:05:26.631Z,240.60
2023-05-08T02:06:26.639Z,241.37
2023-05-08T02:07:26.592Z,240.38
2023-05-08T02:08:26.588Z,241.72
2023-05-08T02:09:26.573Z,240.80
2023-05-08T02:10:26.553Z,239.75
2023-05-08T02:11:26.551Z,241.25
2023-05-08T02:12:26.545Z,240.88
2023-05-08T02:13:26.629Z,241.48
2023-05-08T02:14:26.490Z,239.14
2023-05-08T02:15:26.478Z,241.86
2023-05-08T02:16:26.483Z,241.05
2023-05-08T02:17:26.511Z,239.07
2023-05-08T02:18:26.425Z,239.21
2023-05-08T02:19:26.412Z,239.36
2023-05-08T02:20:26.410Z,239.51
2023-05-08T02:21:26.390Z,240.31
2023-05-08T02:22:26.372Z,241.43
2023-05-08T02:23:26.328Z,240.29
2023-05-08T02:24:26.325Z,240.38
2023-05-08T02:25:26.291Z,239.87
2023-05-08T02:26:26.270Z,240.35
2023-05-08T02:27:26.289Z,241.42
2023-05-08T02:28:26.244Z,239.92
2023-05-08T02:29:26.216Z,239.11
2023-05-08T02:30:26.259Z,240.48
2023-05-08T02:31:26.179Z,239.61
2023-05-08T02:32:26.214Z,240.20
2023-05-08T02:33:26.124Z,238.30
2023-05-08T02:34:26.119Z,239.36
2023-05-08T02:35:26.089Z,239.56
2023-05-08T02:36:26.060Z,240.35
2023-05-08T02:37:26.098Z,241.60
2023-05-08T02:38:26.041Z,237.99
2023-05-08T02:39:26.079Z,239.43
2023-05-08T02:40:26.062Z,238.42
2023-05-08T02:41:26.070Z,238.95
2023-05-08T02:42:26.075Z,240.36
2023-05-08T02:43:26.059Z,240.41
2023-05-08T02:44:26.054Z,240.42
2023-05-08T02:45:26.060Z,240.51
2023-05-08T02:46:26.053Z,240.95
2023-05-08T02:47:26.152Z,239.13
2023-05-08T02:48:26.076Z,238.03
2023-05-08T02:49:25.994Z,235.34
2023-05-08T02:50:26.018Z,234.89
2023-05-08T02:51:25.966Z,233.41
2023-05-08T02:52:26.067Z,229.11
2023-05-08T02:53:25.936Z,224.92
2023-05-08T02:54:26.034Z,221.68
2023-05-08T02:55:25.897Z,215.11
2023-05-08T02:56:25.889Z,210.09
2023-05-08T02:57:25.885Z,206.18
2023-05-08T02:58:25.864Z,201.46
2023-05-08T02:59:25.845Z,197.26
2023-05-08T03:00:25.840Z,191.78
2023-05-08T03:01:25.868Z,186.87
2023-05-08T03:02:25.966Z,179.13
2023-05-08T03:03:25.971Z,172.89
2023-05-08T03:04:25.841Z,164.77
2023-05-08T03:05:25.874Z,161.30
2023-05-08T03:06:26.019Z,151.20
2023-05-08T03:07:26.074Z,143.93
2023-05-08T03:08:26.029Z,135.15
2023-05-08T03:09:26.091Z,127.82
2023-05-08T03:10:26.141Z,123.27
2023-05-08T03:11:26.196Z,116.27
2023-05-08T03:12:26.264Z,107.56
2023-05-08T03:13:26.354Z,99.79
2023-05-08T03:14:26.348Z,92.54
2023-05-08T03:15:26.387Z,82.79
2023-05-08T03:16:26.541Z,79.01
2023-05-08T03:17:26.545Z,74.63
2023-05-08T03:18:26.556Z,67.75
2023-05-08T03:19:26.613Z,60.74
2023-05-08T03:20:26.671Z,56.54
2023-05-08T03:21:26.701Z,51.94
2023-05-08T03:22:26.746Z,46.50
2023-05-08T03:23:26.769Z,41.20
2023-05-08T03:24:26.829Z,37.02
2023-05-08T03:25:26.856Z,31.22
2023-05-08T03:26:26.924Z,24.71
2023-05-08T03:27:27.012Z,25.00
2023-05-08T03:28:27.012Z,26.29
2023-05-08T03:29:27.014Z,25.00
2023-05-08T03:30:27.042Z,25.00
2023-05-08T03:31:27.110Z,26.02
2023-05-08T03:32:27.098Z,24.69
2023-05-08T03:33:27.076Z,25.85
2023-05-08T03:34:27.138Z,25.00
2023-05-08T03:35:27.158Z,26.27
2023-05-08T03:36:27.179Z,26.08
2023-05-08T03:37:27.134Z,25.00
2023-05-08T03:38:27.133Z,27.31
2023-05-08T03:39:27.177Z,25.45
2023-05-08T03:40:27.223Z,26.96
2023-05-08T03:41:27.296Z,28.20
2023-05-08T03:42:27.311Z,28.27
2023-05-08T03:43:27.268Z,28.23
2023-05-08T03:44:27.280Z,26.66
2023-05-08T03:45:27.246Z,28.83
2023-05-08T03:46:27.316Z,30.62
2023-05-08T03:47:27.289Z,31.08
2023-05-08T03:48:27.238Z,30.69
2023-05-08T03:49:27.217Z,29.77
2023-05-08T03:50:27.213Z,31.07
2023-05-08T03:51:27.270Z,31.97
2023-05-08T03:52:27.217Z,30.75
2023-05-08T03:53:27.187Z,35.67
2023-05-08T03:54:27.174Z,36.44
2023-05-08T03:55:27.172Z,37.72
2023-05-08T03:56:27.167Z,38.45
2023-05-08T03:57:27.160Z,39.50
2023-05-08T03:58:27.130Z,41.28
2023-05-08T03:59:27.124Z,43.53
2023-05-08T04:00:27.115Z,44.23
2023-05-08T04:01:27.104Z,44.45
2023-05-08T04:02:27.193Z,41.65
2023-05-08T04:03:27.150Z,43.35
2023-05-08T04:04:27.063Z,43.23
2023-05-08T04:05:27.065Z,45.50
2023-05-08T04:06:28.746Z,44.28
2023-05-08T04:07:27.028Z,45.08
2023-05-08T04:08:27.022Z,46.79
2023-05-08T04:09:27.015Z,45.71
2023-05-08T04:10:27.000Z,45.16
2023-05-08T04:11:26.986Z,45.07
2023-05-08T04:12:26.988Z,47.35
2023-05-08T04:13:27.001Z,46.44
2023-05-08T04:14:26.985Z,48.01
2023-05-08T04:15:26.960Z,46.55
2023-05-08T04:16:27.005Z,48.03
2023-05-08T04:17:26.977Z,47.96
2023-05-08T04:18:26.940Z,47.23
2023-05-08T04:19:26.935Z,44.09
2023-05-08T04:20:26.945Z,45.23
2023-05-08T04:21:26.927Z,44.38
2023-05-08T04:23:45.730Z,25.00
2023-05-08T04:24:45.686Z,25.00
2023-05-08T04:25:45.661Z,25.00
2023-05-08T04:26:45.643Z,25.00
2023-05-08T04:27:45.639Z,25.00
2023-05-08T04:28:45.623Z,25.00
2023-05-08T04:29:45.608Z,25.30
2023-05-08T04:30:45.606Z,25.59
2023-05-08T04:31:45.614Z,26.03
2023-05-08T04:32:46.691Z,26.87
2023-05-08T04:33:45.559Z,30.13
2023-05-08T04:34:45.544Z,35.75
2023-05-08T04:35:45.547Z,29.66
2023-05-08T04:36:45.514Z,34.49
2023-05-08T04:37:45.507Z,31.95
2023-05-08T04:38:45.488Z,35.37
2023-05-08T04:39:45.453Z,35.67
2023-05-08T04:40:45.437Z,31.96
2023-05-08T04:41:45.495Z,32.41
2023-05-08T04:42:45.416Z,28.32
2023-05-08T04:43:45.401Z,27.75
2023-05-08T04:44:45.380Z,30.56
2023-05-08T04:45:45.426Z,26.59
2023-05-08T04:46:45.354Z,27.06
2023-05-08T04:47:45.401Z,28.78
2023-05-08T04:48:45.351Z,26.43
2023-05-08T04:49:45.371Z,28.40
2023-05-08T04:50:45.411Z,24.96
2023-05-08T04:51:45.461Z,26.53
2023-05-08T04:52:45.483Z,29.29
2023-05-08T04:53:45.486Z,25.27
2023-05-08T04:54:45.514Z,29.12
2023-05-08T04:55:45.567Z,27.80
2023-05-08T04:56:45.589Z,28.46
2023-05-08T04:57:45.615Z,25.74
2023-05-08T04:58:45.635Z,27.70
2023-05-08T04:59:45.681Z,29.95
2023-05-08T05:00:45.700Z,33.35
2023-05-08T05:01:45.884Z,29.71
2023-05-08T05:02:45.822Z,29.90
2023-05-08T05:03:45.787Z,30.52
2023-05-08T05:04:45.689Z,31.05
2023-05-08T05:05:45.683Z,32.52
2023-05-08T05:06:45.679Z,36.70
2023-05-08T05:07:45.677Z,39.42
2023-05-08T05:08:45.629Z,38.35
2023-05-08T05:09:45.626Z,32.95
2023-05-08T05:10:45.611Z,36.53
2023-05-08T05:11:46.015Z,40.32
2023-05-08T05:12:45.601Z,42.62
2023-05-08T05:13:45.558Z,42.92
2023-05-08T05:14:45.543Z,45.69
2023-05-08T05:15:45.579Z,55.66
2023-05-08T05:16:45.573Z,75.62
2023-05-08T05:17:45.584Z,113.18
2023-05-08T05:18:45.481Z,130.01
2023-05-08T05:19:45.455Z,135.97
2023-05-08T05:20:45.424Z,143.83
2023-05-08T05:21:45.404Z,149.90
2023-05-08T05:22:45.384Z,158.48
2023-05-08T05:23:45.360Z,167.55
2023-05-08T05:24:45.338Z,172.53
2023-05-08T05:25:45.329Z,177.76
2023-05-08T05:26:45.292Z,184.94
2023-05-08T05:27:45.278Z,177.94
2023-05-08T05:28:45.245Z,177.43
2023-05-08T05:29:45.239Z,182.43
2023-05-08T05:30:45.208Z,181.12
2023-05-08T05:31:45.206Z,186.89
2023-05-08T05:32:45.270Z,198.68
2023-05-08T05:33:45.168Z,210.61
2023-05-08T05:34:45.174Z,224.89
2023-05-08T05:35:45.201Z,174.97
2023-05-08T05:36:45.226Z,155.79
2023-05-08T05:37:45.221Z,147.17
2023-05-08T05:38:45.231Z,125.13
2023-05-08T05:39:45.246Z,121.59
2023-05-08T05:40:45.270Z,120.84
2023-05-08T05:41:45.300Z,118.48
2023-05-08T05:42:45.345Z,124.58
2023-05-08T05:43:45.379Z,67.34
2023-05-08T05:44:45.454Z,21.60
2023-05-08T05:45:45.425Z,0.00
2023-05-08T05:46:45.497Z,0.00
2023-05-08T05:47:45.508Z,0.00
2023-05-08T05:48:45.493Z,0.00
2023-05-08T05:49:45.502Z,0.00
2023-05-08T05:50:45.523Z,9.71
2023-05-08T05:51:45.559Z,30.63
2023-05-08T05:52:45.613Z,58.34
2023-05-08T05:53:45.666Z,87.74
2023-05-08T05:54:45.689Z,127.56
2023-05-08T05:55:45.746Z,163.79
2023-05-08T05:56:45.749Z,191.63
2023-05-08T05:57:45.794Z,192.21
2023-05-08T05:58:45.811Z,207.95
2023-05-08T05:59:45.886Z,170.89
2023-05-08T06:00:45.938Z,168.87
2023-05-08T06:01:46.007Z,151.71
2023-05-08T06:02:46.250Z,144.46
2023-05-08T06:03:46.205Z,146.20
2023-05-08T06:04:46.168Z,135.99
2023-05-08T06:05:46.206Z,119.02
2023-05-08T06:06:46.196Z,98.14
2023-05-08T06:07:46.216Z,96.56
2023-05-08T06:08:46.179Z,94.33
2023-05-08T06:09:46.204Z,93.98
2023-05-08T06:10:46.174Z,85.94
2023-05-08T06:11:46.170Z,113.00
2023-05-08T06:12:46.238Z,114.30
2023-05-08T06:13:47.231Z,127.89
2023-05-08T06:14:46.155Z,145.50
2023-05-08T06:15:46.148Z,136.20
2023-05-08T06:16:46.265Z,138.90
2023-05-08T06:17:46.227Z,107.24
2023-05-08T06:18:46.254Z,82.80
2023-05-08T06:19:46.304Z,73.67
2023-05-08T06:20:46.370Z,60.84
2023-05-08T06:21:46.417Z,73.26
2023-05-08T06:22:46.521Z,85.94
2023-05-08T06:23:46.586Z,88.45
2023-05-08T06:24:46.592Z,72.52
2023-05-08T06:25:46.632Z,73.13
2023-05-08T06:26:46.704Z,75.39
2023-05-08T06:27:46.748Z,67.39
2023-05-08T06:28:46.818Z,62.12
2023-05-08T06:29:46.873Z,72.01
2023-05-08T06:30:46.937Z,83.70
2023-05-08T06:31:46.971Z,66.64
2023-05-08T06:32:47.044Z,70.11
2023-05-08T06:33:47.121Z,79.42
2023-05-08T06:34:47.131Z,55.35
2023-05-08T06:35:47.117Z,49.46
2023-05-08T06:36:47.120Z,40.88
2023-05-08T06:37:47.149Z,46.53
2023-05-08T06:38:47.154Z,35.69
2023-05-08T06:39:48.962Z,42.85
2023-05-08T06:40:47.204Z,56.64
2023-05-08T06:41:47.174Z,57.66
2023-05-08T06:42:47.152Z,63.10
2023-05-08T06:43:47.194Z,73.06
2023-05-08T06:44:47.161Z,106.06
2023-05-08T06:45:47.251Z,60.69
2023-05-08T06:46:47.204Z,78.94
2023-05-08T06:47:47.165Z,120.63
2023-05-08T06:48:47.156Z,196.33
2023-05-08T06:49:47.163Z,287.05
2023-05-08T06:50:47.156Z,242.25
2023-05-08T06:51:47.143Z,229.63
2023-05-08T06:52:47.149Z,240.59
2023-05-08T06:53:47.139Z,251.79
2023-05-08T06:54:47.130Z,250.00
2023-05-08T06:55:47.125Z,250.34
2023-05-08T06:56:47.104Z,252.61
2023-05-08T06:57:47.094Z,258.60
2023-05-08T06:58:53.772Z,272.52
2023-05-08T06:59:48.081Z,251.31
2023-05-08T07:00:47.048Z,256.64
2023-05-08T07:01:47.101Z,267.17
2023-05-08T07:02:47.099Z,286.34
2023-05-08T07:03:47.045Z,320.81
2023-05-08T07:04:47.024Z,311.75
2023-05-08T07:05:46.996Z,294.47
2023-05-08T07:06:46.964Z,282.43
2023-05-08T07:07:46.977Z,274.87
2023-05-08T07:08:46.931Z,262.27
2023-05-08T07:09:46.951Z,254.80
2023-05-08T07:10:46.907Z,247.40
2023-05-08T07:11:46.892Z,249.19
2023-05-08T07:12:46.973Z,249.24
2023-05-08T07:13:46.905Z,250.00
2023-05-08T07:14:46.973Z,249.68
2023-05-08T07:15:47.109Z,248.07
2023-05-08T07:16:47.074Z,242.24
2023-05-08T07:17:47.122Z,230.47
2023-05-08T07:18:47.138Z,224.39
2023-05-08T07:19:47.249Z,215.23
2023-05-08T07:20:47.228Z,208.70
2023-05-08T07:21:47.293Z,204.19
2023-05-08T07:22:47.278Z,196.39
2023-05-08T07:23:47.281Z,189.26
2023-05-08T07:24:47.296Z,180.31
2023-05-08T07:25:47.245Z,177.16
2023-05-08T07:26:47.235Z,172.51
2023-05-08T07:27:47.232Z,169.32
2023-05-08T07:28:47.279Z,165.93
2023-05-08T07:29:47.218Z,160.89
2023-05-08T07:30:47.212Z,157.56
2023-05-08T07:31:47.189Z,157.58
2023-05-08T07:32:47.172Z,151.37
2023-05-08T07:33:47.124Z,153.09
2023-05-08T07:34:47.217Z,153.04
2023-05-08T07:35:47.143Z,150.79
2023-05-08T07:36:47.083Z,157.45
2023-05-08T07:37:47.143Z,163.75
2023-05-08T07:38:47.065Z,165.77
2023-05-08T07:39:47.080Z,171.49
2023-05-08T07:40:47.062Z,181.64
2023-05-08T07:41:49.583Z,192.26
2023-05-08T07:42:47.042Z,195.85
2023-05-08T07:43:47.035Z,192.05
2023-05-08T07:44:54.336Z,189.16
2023-05-08T07:45:47.996Z,189.40
2023-05-08T07:46:47.039Z,190.60
2023-05-08T07:47:47.086Z,193.17
2023-05-08T07:48:47.009Z,197.81
2023-05-08T07:49:46.990Z,197.80
2023-05-08T07:50:47.008Z,203.48
2023-05-08T07:51:47.013Z,210.30
2023-05-08T07:52:48.713Z,210.48
2023-05-08T07:53:46.954Z,211.20
2023-05-08T07:54:46.972Z,218.80
2023-05-08T07:55:46.931Z,218.84
2023-05-08T07:56:46.975Z,219.32
2023-05-08T07:57:46.975Z,221.28
2023-05-08T07:58:46.888Z,226.26
2023-05-08T07:59:46.942Z,219.20
2023-05-08T08:00:46.900Z,221.56
2023-05-08T08:01:46.910Z,225.86
2023-05-08T08:02:47.027Z,233.81
2023-05-08T08:03:47.009Z,238.73
2023-05-08T08:04:46.888Z,240.03
2023-05-08T08:05:46.824Z,240.57
2023-05-08T08:06:46.810Z,240.58
2023-05-08T08:07:46.858Z,243.67
2023-05-08T08:08:46.867Z,241.59
2023-05-08T08:09:46.887Z,239.95
2023-05-08T08:10:46.928Z,239.29
2023-05-08T08:11:46.998Z,233.89
2023-05-08T08:12:47.169Z,232.50
2023-05-08T08:13:47.094Z,224.57
2023-05-08T08:14:47.123Z,221.42
2023-05-08T08:15:47.159Z,210.13
2023-05-08T08:16:47.158Z,210.16
2023-05-08T08:17:47.146Z,207.30
2023-05-08T08:18:47.163Z,205.88
2023-05-08T08:19:47.116Z,202.24
2023-05-08T08:20:47.122Z,203.54
2023-05-08T08:21:47.097Z,201.26
2023-05-08T08:22:47.093Z,196.51
2023-05-08T08:23:47.156Z,196.85
2023-05-08T08:24:47.053Z,194.68
2023-05-08T08:25:47.115Z,193.05
2023-05-08T08:26:47.034Z,186.97
2023-05-08T08:27:47.113Z,182.81
2023-05-08T08:28:47.020Z,180.96
2023-05-08T08:29:47.007Z,176.34
2023-05-08T08:30:47.168Z,182.86
2023-05-08T08:31:46.997Z,187.82
2023-05-08T08:32:47.152Z,186.42
2023-05-08T08:33:46.996Z,181.00
2023-05-08T08:34:47.051Z,181.06
2023-05-08T08:35:46.994Z,175.98
2023-05-08T08:36:46.999Z,176.31
2023-05-08T08:37:46.976Z,174.20
2023-05-08T08:38:46.977Z,164.72
2023-05-08T08:39:47.115Z,161.97
2023-05-08T08:40:47.063Z,162.32
2023-05-08T08:41:47.082Z,158.90
2023-05-08T08:42:47.131Z,158.83
2023-05-08T08:43:47.179Z,161.09
2023-05-08T08:44:47.246Z,159.17
2023-05-08T08:45:47.237Z,153.87
2023-05-08T08:46:47.224Z,155.80
2023-05-08T08:47:47.223Z,157.15
2023-05-08T08:48:47.258Z,159.35
2023-05-08T08:49:47.196Z,159.36
2023-05-08T08:50:47.321Z,160.80
2023-05-08T08:51:47.188Z,161.47
2023-05-08T08:52:47.224Z,165.13
2023-05-08T08:53:47.177Z,171.77
2023-05-08T08:54:47.296Z,174.10
2023-05-08T08:55:47.284Z,182.59
2023-05-08T08:56:47.186Z,185.71
2023-05-08T08:57:47.190Z,198.00
2023-05-08T08:58:47.203Z,202.74
2023-05-08T08:59:47.227Z,205.58
2023-05-08T09:00:47.254Z,207.71
2023-05-08T09:01:47.303Z,212.47
2023-05-08T09:02:47.360Z,215.06
2023-05-08T09:03:49.196Z,216.88
2023-05-08T09:04:47.334Z,217.02
2023-05-08T09:05:47.311Z,217.56
2023-05-08T09:06:47.349Z,220.26
2023-05-08T09:07:47.262Z,218.77
2023-05-08T09:08:47.272Z,222.61
2023-05-08T09:09:47.250Z,222.29
2023-05-08T09:10:47.241Z,224.15
2023-05-08T09:11:47.312Z,219.87
2023-05-08T09:12:47.253Z,225.80
2023-05-08T09:13:47.190Z,225.47
2023-05-08T09:14:47.264Z,224.87
2023-05-08T09:15:47.163Z,224.24
2023-05-08T09:16:47.170Z,212.33
2023-05-08T09:17:47.214Z,213.76
2023-05-08T09:18:47.126Z,218.10
2023-05-08T09:19:47.112Z,207.96
2023-05-08T09:20:47.097Z,210.85
2023-05-08T09:21:47.073Z,209.84
2023-05-08T09:22:47.057Z,213.17
2023-05-08T09:23:47.051Z,210.44
2023-05-08T09:24:47.082Z,213.56
2023-05-08T09:25:47.033Z,209.39
2023-05-08T09:26:47.031Z,211.11
2023-05-08T09:27:47.125Z,215.80
2023-05-08T09:28:47.106Z,211.92
2023-05-08T09:29:47.022Z,208.35
2023-05-08T09:30:46.965Z,213.26
2023-05-08T09:31:47.006Z,202.82
2023-05-08T09:32:47.003Z,198.33
2023-05-08T09:33:46.980Z,198.28
2023-05-08T09:34:46.993Z,188.74
2023-05-08T09:35:46.954Z,183.19
2023-05-08T09:36:46.931Z,184.72
2023-05-08T09:37:46.910Z,177.17
2023-05-08T09:38:46.910Z,174.63
2023-05-08T09:39:46.944Z,171.81
2023-05-08T09:40:46.893Z,172.81
2023-05-08T09:41:46.878Z,162.89
2023-05-08T09:42:46.992Z,164.93
2023-05-08T09:43:47.201Z,158.29
2023-05-08T09:44:46.861Z,159.61
2023-05-08T09:45:46.931Z,169.22
2023-05-08T09:46:46.827Z,179.34
2023-05-08T09:47:46.853Z,179.54
2023-05-08T09:48:46.893Z,179.85
2023-05-08T09:49:46.815Z,180.87
2023-05-08T09:50:46.790Z,180.04
2023-05-08T09:51:46.809Z,181.84
2023-05-08T09:52:46.789Z,187.30
2023-05-08T09:53:46.746Z,189.86
2023-05-08T09:54:46.740Z,179.99
2023-05-08T09:55:46.712Z,182.13
2023-05-08T09:56:46.726Z,186.57
2023-05-08T09:57:46.687Z,193.00
2023-05-08T09:58:46.692Z,204.83
2023-05-08T09:59:46.754Z,206.57
2023-05-08T10:00:46.721Z,209.61
2023-05-08T10:01:46.648Z,210.07
2023-05-08T10:02:46.691Z,199.80
2023-05-08T10:03:46.655Z,199.85
2023-05-08T10:04:46.626Z,200.08
2023-05-08T10:05:46.652Z,202.61
2023-05-08T10:06:46.588Z,201.19
2023-05-08T10:07:46.582Z,206.37
2023-05-08T10:08:46.617Z,211.46
2023-05-08T10:09:50.586Z,220.45
2023-05-08T10:10:46.562Z,220.54
2023-05-08T10:11:46.542Z,214.03
2023-05-08T10:12:46.521Z,207.27
2023-05-08T10:13:46.583Z,211.15
2023-05-08T10:14:46.989Z,216.38
2023-05-08T10:15:46.561Z,217.59
2023-05-08T10:16:46.464Z,227.31
2023-05-08T10:17:46.465Z,226.03
2023-05-08T10:18:46.455Z,223.70
2023-05-08T10:19:46.424Z,226.16
2023-05-08T10:20:46.408Z,218.00
2023-05-08T10:21:46.401Z,218.17
2023-05-08T10:22:46.379Z,217.79
2023-05-08T10:23:46.386Z,214.95
2023-05-08T10:24:46.475Z,209.19
2023-05-08T10:25:46.362Z,209.24
2023-05-08T10:27:02.658Z,208.41
2023-05-08T10:27:47.325Z,209.22
2023-05-08T10:28:46.317Z,209.31
2023-05-08T10:29:46.346Z,204.09
2023-05-08T10:30:46.326Z,204.51
2023-05-08T10:31:46.366Z,209.20
2023-05-08T10:32:46.327Z,209.75
2023-05-08T10:33:46.276Z,210.53
2023-05-08T10:34:46.228Z,208.45
2023-05-08T10:35:46.208Z,204.43
2023-05-08T10:36:46.268Z,211.85
2023-05-08T10:37:46.198Z,217.78
2023-05-08T10:38:46.198Z,226.59
2023-05-08T10:39:46.157Z,219.49
2023-05-08T10:40:46.196Z,217.38
2023-05-08T10:41:46.161Z,217.35
2023-05-08T10:42:46.168Z,221.68
2023-05-08T10:43:46.157Z,221.07
2023-05-08T10:44:46.134Z,228.45
2023-05-08T10:45:46.112Z,226.78
2023-05-08T10:46:46.271Z,223.53
2023-05-08T10:47:46.266Z,230.47
2023-05-08T10:48:46.101Z,232.74
2023-05-08T10:49:46.071Z,240.26
2023-05-08T10:50:46.093Z,240.27
2023-05-08T10:51:46.055Z,228.09
2023-05-08T10:52:46.049Z,238.48
2023-05-08T10:53:46.050Z,235.65
2023-05-08T10:54:46.041Z,238.61
2023-05-08T10:55:46.034Z,240.18
2023-05-08T10:56:46.022Z,230.72
2023-05-08T10:57:45.985Z,232.50
2023-05-08T10:58:46.033Z,236.01
2023-05-08T10:59:45.977Z,227.91
2023-05-08T11:00:45.964Z,230.41
2023-05-08T11:01:46.018Z,216.57
2023-05-08T11:02:46.039Z,211.56
2023-05-08T11:03:46.238Z,211.27
2023-05-08T11:04:46.028Z,218.32
2023-05-08T11:05:45.998Z,220.43
2023-05-08T11:06:45.992Z,233.44
2023-05-08T11:07:45.925Z,250.07
2023-05-08T11:08:46.009Z,254.61
2023-05-08T11:09:45.888Z,254.30
2023-05-08T11:10:45.913Z,249.93
2023-05-08T11:11:45.933Z,250.78
2023-05-08T11:12:45.977Z,250.00
2023-05-08T11:13:45.971Z,250.27
2023-05-08T11:14:45.931Z,252.28
2023-05-08T11:15:46.010Z,257.70
2023-05-08T11:16:46.191Z,269.02
2023-05-08T11:17:45.934Z,287.72
2023-05-08T11:18:49.474Z,280.84
2023-05-08T11:19:45.859Z,281.03
2023-05-08T11:20:45.846Z,282.71
2023-05-08T11:21:45.842Z,281.55
2023-05-08T11:22:45.795Z,284.54
2023-05-08T11:23:45.821Z,291.45
2023-05-08T11:24:45.749Z,300.53
2023-05-08T11:25:45.723Z,282.19
2023-05-08T11:26:45.701Z,287.19
2023-05-08T11:27:45.716Z,297.19
2023-05-08T11:28:45.735Z,313.42
2023-05-08T11:29:45.654Z,334.79
2023-05-08T11:30:45.646Z,324.69
2023-05-08T11:31:45.671Z,313.26
2023-05-08T11:32:45.607Z,303.29
2023-05-08T11:33:45.571Z,293.83
2023-05-08T11:34:45.544Z,283.78
2023-05-08T11:35:45.567Z,272.91
2023-05-08T11:36:45.597Z,263.11
2023-05-08T11:37:45.644Z,252.82
2023-05-08T11:38:45.665Z,249.97
2023-05-08T11:39:45.611Z,248.11
2023-05-08T11:40:45.624Z,248.21
2023-05-08T11:41:45.593Z,246.36
2023-05-08T11:42:45.573Z,245.80
2023-05-08T11:43:45.669Z,245.53
2023-05-08T11:44:45.711Z,242.36
2023-05-08T11:45:45.752Z,244.53
2023-05-08T11:46:45.753Z,244.62
2023-05-08T11:47:45.820Z,244.82
2023-05-08T11:48:45.692Z,244.77
2023-05-08T11:49:45.676Z,244.63
2023-05-08T11:50:45.642Z,244.63
2023-05-08T11:51:45.632Z,243.83
2023-05-08T11:52:45.629Z,241.93
2023-05-08T11:53:45.614Z,240.89
2023-05-08T11:54:45.549Z,241.40
2023-05-08T11:55:45.515Z,240.32
2023-05-08T11:56:47.637Z,237.47
2023-05-08T11:57:45.480Z,235.24
2023-05-08T11:58:45.527Z,234.89
2023-05-08T11:59:45.570Z,234.15
2023-05-08T12:00:45.590Z,234.03
2023-05-08T12:01:53.632Z,232.97
2023-05-08T12:02:46.735Z,234.17
2023-05-08T12:03:45.530Z,232.64
2023-05-08T12:04:45.522Z,234.67
2023-05-08T12:05:45.458Z,237.13
2023-05-08T12:06:45.412Z,244.07
2023-05-08T12:07:45.380Z,247.27
2023-05-08T12:08:45.388Z,249.72
2023-05-08T12:09:45.328Z,249.89
2023-05-08T12:10:46.818Z,250.00
2023-05-08T12:11:45.427Z,250.23
2023-05-08T12:12:45.617Z,249.82
2023-05-08T12:13:45.507Z,249.50
2023-05-08T12:14:45.530Z,248.56
2023-05-08T12:15:45.605Z,245.05
2023-05-08T12:16:45.565Z,245.12
2023-05-08T12:17:45.557Z,245.14
2023-05-08T12:18:45.525Z,245.50
2023-05-08T12:19:45.499Z,243.58
2023-05-08T12:20:45.487Z,243.60
2023-05-08T12:21:45.473Z,242.44
2023-05-08T12:22:45.460Z,242.93
2023-05-08T12:23:45.429Z,243.83
2023-05-08T12:24:45.424Z,241.93
2023-05-08T12:25:45.507Z,240.09
2023-05-08T12:26:45.505Z,241.41
2023-05-08T12:27:45.569Z,240.46
2023-05-08T12:28:45.615Z,240.78
2023-05-08T12:29:45.629Z,241.61
2023-05-08T12:30:45.699Z,239.02
2023-05-08T12:31:45.762Z,237.95
2023-05-08T12:32:45.809Z,237.11
2023-05-08T12:33:45.798Z,237.00
2023-05-08T12:34:45.862Z,238.92